createdAt,value
2018-05-16T00:00:23.030Z,14.92
2018-05-16T00:01:23.264Z,14.78
2018-05-16T00:02:23.498Z,14.68
2018-05-16T00:03:23.719Z,14.81
2018-05-16T00:04:23.952Z,14.72
2018-05-16T00:05:24.179Z,14.59
2018-05-16T00:06:24.413Z,14.59
2018-05-16T00:07:24.641Z,14.63
2018-05-16T00:08:24.872Z,14.66
2018-05-16T00:09:25.109Z,14.62
2018-05-16T00:10:25.334Z,14.62
2018-05-16T00:11:25.560Z,14.60
2018-05-16T00:12:25.791Z,14.54
2018-05-16T00:13:26.024Z,14.55
2018-05-16T00:14:26.300Z,14.58
2018-05-16T00:15:26.531Z,14.60
2018-05-16T00:16:26.760Z,14.58
2018-05-16T00:17:26.986Z,14.58
2018-05-16T00:18:27.223Z,14.62
2018-05-16T00:19:27.452Z,14.68
2018-05-16T00:20:27.688Z,14.54
2018-05-16T00:21:27.917Z,14.53
2018-05-16T00:22:28.150Z,14.50
2018-05-16T00:23:28.380Z,14.50
2018-05-16T00:24:28.612Z,14.50
2018-05-16T00:25:28.841Z,14.62
2018-05-16T00:26:29.070Z,14.55
2018-05-16T00:27:29.298Z,14.59
2018-05-16T00:28:29.528Z,14.59
2018-05-16T00:29:29.759Z,14.50
2018-05-16T00:30:29.986Z,14.50
2018-05-16T00:31:30.216Z,14.47
2018-05-16T00:32:30.446Z,14.51
2018-05-16T00:33:30.677Z,14.41
2018-05-16T00:34:30.908Z,14.32
2018-05-16T00:35:31.140Z,14.40
2018-05-16T00:36:31.368Z,14.32
2018-05-16T00:37:31.606Z,14.45
2018-05-16T00:38:31.828Z,14.45
2018-05-16T00:39:32.056Z,14.37
2018-05-16T00:40:32.286Z,14.43
2018-05-16T00:41:32.515Z,14.33
2018-05-16T00:42:32.745Z,14.47
2018-05-16T00:43:32.978Z,14.26
2018-05-16T00:44:33.203Z,14.33
2018-05-16T00:45:33.438Z,14.44
2018-05-16T00:46:33.669Z,14.35
2018-05-16T00:47:33.899Z,14.51
2018-05-16T00:48:34.137Z,14.50
2018-05-16T00:49:34.354Z,14.41
2018-05-16T00:50:34.584Z,14.44
2018-05-16T00:51:34.814Z,14.36
2018-05-16T00:52:35.047Z,14.25
2018-05-16T00:53:35.272Z,14.35
2018-05-16T00:54:35.505Z,14.30
2018-05-16T00:55:35.727Z,14.20
2018-05-16T00:56:35.958Z,14.15
2018-05-16T00:57:36.188Z,14.20
2018-05-16T00:58:36.417Z,14.10
2018-05-16T00:59:36.646Z,14.10
2018-05-16T01:00:36.881Z,14.04
2018-05-16T01:01:37.107Z,14.05
2018-05-16T01:02:37.336Z,14.12
2018-05-16T01:03:37.572Z,14.11
2018-05-16T01:04:37.805Z,14.18
2018-05-16T01:05:38.039Z,14.23
2018-05-16T01:06:38.256Z,14.28
2018-05-16T01:07:38.483Z,14.32
2018-05-16T01:08:38.712Z,14.43
2018-05-16T01:09:38.942Z,14.37
2018-05-16T01:10:39.171Z,14.44
2018-05-16T01:11:39.407Z,14.41
2018-05-16T01:12:39.627Z,14.33
2018-05-16T01:13:39.859Z,14.28
2018-05-16T01:14:40.089Z,14.41
2018-05-16T01:15:40.317Z,14.28
2018-05-16T01:16:40.547Z,14.28
2018-05-16T01:17:40.774Z,14.22
2018-05-16T01:18:41.001Z,14.20
2018-05-16T01:19:41.233Z,14.12
2018-05-16T01:20:41.467Z,14.11
2018-05-16T01:21:41.697Z,14.18
2018-05-16T01:22:41.934Z,14.05
2018-05-16T01:23:42.157Z,14.05
2018-05-16T01:24:42.391Z,13.90
2018-05-16T01:25:42.618Z,13.86
2018-05-16T01:26:42.845Z,13.77
2018-05-16T01:27:43.071Z,13.90
2018-05-16T01:28:43.302Z,13.90
2018-05-16T01:29:43.529Z,13.89
2018-05-16T01:30:43.764Z,13.93
2018-05-16T01:31:43.994Z,13.83
2018-05-16T01:32:44.227Z,13.74
2018-05-16T01:33:44.461Z,13.75
2018-05-16T01:34:44.686Z,13.78
2018-05-16T01:35:44.911Z,13.87
2018-05-16T01:36:45.143Z,13.77
2018-05-16T01:37:45.373Z,13.85
2018-05-16T01:38:45.601Z,13.93
2018-05-16T01:39:45.832Z,13.79
2018-05-16T01:40:46.059Z,13.74
2018-05-16T01:41:46.291Z,13.79
2018-05-16T01:42:46.526Z,13.78
2018-05-16T01:43:46.752Z,13.86
2018-05-16T01:44:46.982Z,13.79
2018-05-16T01:45:47.211Z,13.79
2018-05-16T01:46:47.442Z,13.90
2018-05-16T01:47:47.671Z,13.93
2018-05-16T01:48:47.900Z,13.87
2018-05-16T01:49:48.137Z,13.89
2018-05-16T01:50:48.359Z,13.89
2018-05-16T01:51:48.590Z,13.81
2018-05-16T01:52:48.818Z,13.75
2018-05-16T01:53:49.049Z,13.75
2018-05-16T01:54:49.279Z,13.74
2018-05-16T01:55:49.507Z,13.83
2018-05-16T01:56:49.737Z,13.75
2018-05-16T01:57:49.969Z,13.75
2018-05-16T01:58:50.200Z,13.79
2018-05-16T01:59:50.429Z,13.74
2018-05-16T02:00:50.658Z,13.72
2018-05-16T02:01:50.887Z,13.75
2018-05-16T02:02:51.119Z,13.78
2018-05-16T02:03:51.353Z,13.74
2018-05-16T02:04:51.580Z,13.81
2018-05-16T02:05:51.810Z,13.79
2018-05-16T02:06:52.040Z,13.77
2018-05-16T02:07:52.269Z,13.71
2018-05-16T02:08:52.500Z,13.72
2018-05-16T02:09:52.728Z,13.72
2018-05-16T02:10:52.960Z,13.74
2018-05-16T02:11:53.189Z,13.72
2018-05-16T02:12:53.418Z,13.67
2018-05-16T02:13:53.652Z,13.70
2018-05-16T02:14:53.880Z,13.62
2018-05-16T02:15:54.109Z,13.62
2018-05-16T02:16:54.339Z,13.77
2018-05-16T02:17:54.569Z,13.67
2018-05-16T02:18:54.799Z,13.57
2018-05-16T02:19:55.032Z,13.60
2018-05-16T02:20:55.261Z,13.65
2018-05-16T02:21:55.493Z,13.65
2018-05-16T02:22:55.723Z,13.49
2018-05-16T02:23:55.953Z,13.56
2018-05-16T02:24:56.186Z,13.53
2018-05-16T02:25:56.412Z,13.52
2018-05-16T02:26:56.641Z,13.47
2018-05-16T02:27:56.871Z,13.47
2018-05-16T02:28:57.100Z,13.53
2018-05-16T02:29:57.330Z,13.54
2018-05-16T02:30:57.563Z,13.53
2018-05-16T02:31:57.791Z,13.39
2018-05-16T02:32:58.023Z,13.53
2018-05-16T02:33:58.255Z,13.53
2018-05-16T02:34:58.479Z,13.56
2018-05-16T02:35:58.713Z,13.62
2018-05-16T02:36:58.943Z,13.62
2018-05-16T02:37:59.170Z,13.59
2018-05-16T02:38:59.403Z,13.62
2018-05-16T02:39:59.634Z,13.65
2018-05-16T02:40:59.864Z,13.60
2018-05-16T02:42:00.090Z,13.65
2018-05-16T02:43:00.320Z,13.65
2018-05-16T02:44:00.550Z,13.63
2018-05-16T02:45:00.778Z,13.65
2018-05-16T02:46:01.007Z,13.60
2018-05-16T02:47:01.238Z,13.67
2018-05-16T02:48:01.468Z,13.72
2018-05-16T02:49:01.697Z,13.59
2018-05-16T02:50:01.917Z,13.56
2018-05-16T02:51:02.143Z,13.57
2018-05-16T02:52:02.374Z,13.59
2018-05-16T02:53:02.609Z,13.68
2018-05-16T02:54:02.834Z,13.65
2018-05-16T02:55:03.067Z,13.67
2018-05-16T02:56:03.296Z,13.62
2018-05-16T02:57:03.522Z,13.70
2018-05-16T02:58:03.751Z,13.59
2018-05-16T02:59:03.977Z,13.56
2018-05-16T03:00:04.209Z,13.49
2018-05-16T03:01:04.440Z,13.57
2018-05-16T03:02:04.672Z,13.60
2018-05-16T03:03:04.902Z,13.47
2018-05-16T03:04:05.133Z,13.52
2018-05-16T03:05:05.361Z,13.50
2018-05-16T03:06:05.632Z,13.50
2018-05-16T03:07:05.825Z,13.50
2018-05-16T03:08:06.058Z,13.46
2018-05-16T03:09:06.288Z,13.50
2018-05-16T03:10:06.518Z,13.47
2018-05-16T03:11:06.747Z,13.46
2018-05-16T03:12:06.979Z,13.50
2018-05-16T03:13:07.212Z,13.49
2018-05-16T03:14:07.446Z,13.54
2018-05-16T03:15:07.666Z,13.65
2018-05-16T03:16:07.894Z,13.62
2018-05-16T03:17:08.125Z,13.78
2018-05-16T03:18:08.354Z,13.72
2018-05-16T03:19:08.586Z,13.72
2018-05-16T03:20:08.816Z,13.78
2018-05-16T03:21:09.047Z,13.77
2018-05-16T03:22:09.277Z,13.77
2018-05-16T03:23:09.506Z,13.75
2018-05-16T03:24:09.738Z,13.77
2018-05-16T03:25:09.968Z,13.72
2018-05-16T03:26:10.198Z,13.77
2018-05-16T03:27:10.429Z,13.63
2018-05-16T03:28:10.659Z,13.65
2018-05-16T03:29:10.898Z,13.63
2018-05-16T03:30:11.128Z,13.60
2018-05-16T03:31:11.358Z,13.62
2018-05-16T03:32:11.587Z,13.65
2018-05-16T03:33:11.816Z,13.63
2018-05-16T03:34:12.045Z,13.75
2018-05-16T03:35:12.276Z,13.81
2018-05-16T03:36:12.508Z,13.72
2018-05-16T03:37:12.761Z,13.77
2018-05-16T03:38:12.961Z,13.77
2018-05-16T03:39:13.195Z,13.77
2018-05-16T03:40:13.421Z,13.72
2018-05-16T03:41:13.649Z,13.67
2018-05-16T03:42:13.885Z,13.78
2018-05-16T03:43:14.108Z,13.81
2018-05-16T03:44:14.339Z,13.74
2018-05-16T03:45:14.569Z,13.79
2018-05-16T03:46:14.800Z,13.74
2018-05-16T03:47:15.031Z,13.68
2018-05-16T03:48:15.261Z,13.62
2018-05-16T03:49:15.487Z,13.57
2018-05-16T03:50:15.719Z,13.62
2018-05-16T03:51:15.948Z,13.49
2018-05-16T03:52:16.181Z,13.57
2018-05-16T03:53:16.412Z,13.54
2018-05-16T03:54:16.640Z,13.57
2018-05-16T03:55:16.870Z,13.54
2018-05-16T03:56:17.103Z,13.49
2018-05-16T03:57:17.332Z,13.50
2018-05-16T03:58:17.562Z,13.53
2018-05-16T03:59:17.793Z,13.53
2018-05-16T04:00:18.022Z,13.53
2018-05-16T04:01:18.251Z,13.54
2018-05-16T04:02:18.499Z,13.54
2018-05-16T04:03:18.714Z,13.65
2018-05-16T04:04:18.945Z,13.77
2018-05-16T04:05:19.179Z,13.57
2018-05-16T04:06:19.407Z,13.56
2018-05-16T04:07:19.634Z,13.52
2018-05-16T04:08:19.866Z,13.62
2018-05-16T04:09:20.093Z,13.68
2018-05-16T04:10:20.324Z,13.68
2018-05-16T04:11:20.553Z,13.70
2018-05-16T04:12:20.783Z,13.60
2018-05-16T04:13:21.089Z,13.59
2018-05-16T04:14:21.242Z,13.67
2018-05-16T04:15:21.473Z,13.71
2018-05-16T04:16:21.705Z,13.81
2018-05-16T04:17:21.937Z,13.75
2018-05-16T04:18:22.165Z,13.83
2018-05-16T04:19:22.396Z,13.81
2018-05-16T04:20:22.638Z,13.89
2018-05-16T04:21:22.868Z,13.93
2018-05-16T04:22:23.100Z,13.97
2018-05-16T04:23:23.330Z,13.95
2018-05-16T04:24:23.563Z,14.03
2018-05-16T04:25:23.795Z,14.07
2018-05-16T04:26:24.022Z,14.10
2018-05-16T04:27:24.252Z,14.14
2018-05-16T04:28:24.488Z,14.10
2018-05-16T04:29:24.716Z,14.23
2018-05-16T04:30:24.944Z,14.12
2018-05-16T04:31:25.175Z,14.12
2018-05-16T04:32:25.411Z,14.14
2018-05-16T04:33:25.641Z,14.22
2018-05-16T04:34:25.866Z,14.07
2018-05-16T04:35:26.165Z,14.15
2018-05-16T04:36:26.334Z,14.26
2018-05-16T04:37:26.559Z,14.26
2018-05-16T04:38:26.789Z,14.29
2018-05-16T04:39:27.023Z,14.50
2018-05-16T04:40:27.252Z,14.48
2018-05-16T04:41:27.484Z,14.62
2018-05-16T04:42:27.717Z,14.89
2018-05-16T04:43:27.952Z,15.31
2018-05-16T04:44:28.172Z,15.47
2018-05-16T04:45:28.411Z,15.73
2018-05-16T04:46:28.630Z,16.00
2018-05-16T04:47:28.863Z,16.26
2018-05-16T04:48:29.094Z,15.98
2018-05-16T04:49:29.320Z,15.76
2018-05-16T04:50:29.550Z,15.67
2018-05-16T04:51:29.781Z,15.37
2018-05-16T04:52:30.014Z,15.27
2018-05-16T04:53:30.245Z,15.07
2018-05-16T04:54:30.475Z,15.03
2018-05-16T04:55:30.709Z,15.07
2018-05-16T04:56:30.937Z,14.99
2018-05-16T04:57:31.167Z,14.97
2018-05-16T04:58:31.396Z,14.86
2018-05-16T04:59:31.627Z,14.85
2018-05-16T05:00:31.856Z,14.86
2018-05-16T05:01:32.093Z,14.72
2018-05-16T05:02:32.320Z,14.86
2018-05-16T05:03:32.554Z,14.66
2018-05-16T05:04:32.783Z,14.59
2018-05-16T05:05:33.020Z,14.72
2018-05-16T05:06:33.259Z,14.89
2018-05-16T05:07:33.484Z,14.81
2018-05-16T05:08:33.717Z,14.81
2018-05-16T05:09:33.953Z,14.81
2018-05-16T05:10:34.177Z,14.92
2018-05-16T05:11:34.411Z,14.73
2018-05-16T05:12:34.642Z,14.82
2018-05-16T05:13:34.872Z,14.85
2018-05-16T05:14:35.105Z,14.78
2018-05-16T05:15:35.338Z,14.77
2018-05-16T05:16:35.568Z,14.77
2018-05-16T05:17:35.798Z,14.86
2018-05-16T05:18:36.073Z,14.96
2018-05-16T05:19:36.259Z,14.99
2018-05-16T05:20:36.487Z,15.10
2018-05-16T05:21:36.717Z,15.29
2018-05-16T05:22:36.949Z,15.33
2018-05-16T05:23:37.182Z,15.47
2018-05-16T05:24:37.411Z,15.64
2018-05-16T05:25:37.643Z,15.75
2018-05-16T05:26:37.875Z,15.82
2018-05-16T05:27:38.105Z,16.04
2018-05-16T05:28:38.337Z,15.98
2018-05-16T05:29:38.566Z,15.98
2018-05-16T05:30:38.799Z,16.12
2018-05-16T05:31:39.030Z,16.24
2018-05-16T05:32:39.263Z,16.21
2018-05-16T05:33:39.499Z,16.38
2018-05-16T05:34:39.731Z,16.35
2018-05-16T05:35:39.966Z,16.23
2018-05-16T05:36:40.197Z,16.24
2018-05-16T05:37:40.423Z,16.00
2018-05-16T05:38:40.657Z,15.80
2018-05-16T05:39:40.891Z,15.70
2018-05-16T05:40:41.121Z,15.61
2018-05-16T05:41:41.362Z,15.59
2018-05-16T05:42:41.583Z,15.52
2018-05-16T05:43:41.816Z,15.27
2018-05-16T05:44:42.049Z,15.09
2018-05-16T05:45:42.280Z,15.15
2018-05-16T05:46:42.518Z,15.33
2018-05-16T05:47:42.741Z,15.54
2018-05-16T05:48:42.976Z,15.57
2018-05-16T05:49:43.208Z,15.59
2018-05-16T05:50:43.438Z,15.65
2018-05-16T05:51:43.678Z,15.82
2018-05-16T05:52:43.897Z,15.79
2018-05-16T05:53:44.128Z,15.67
2018-05-16T05:54:44.357Z,15.77
2018-05-16T05:55:44.593Z,15.80
2018-05-16T05:56:44.825Z,15.91
2018-05-16T05:57:45.058Z,15.75
2018-05-16T05:58:45.284Z,15.59
2018-05-16T05:59:45.521Z,15.51
2018-05-16T06:00:45.745Z,15.72
2018-05-16T06:01:45.975Z,15.80
2018-05-16T06:02:46.202Z,16.36
2018-05-16T06:03:46.433Z,17.06
2018-05-16T06:04:46.668Z,17.70
2018-05-16T06:05:46.900Z,18.31
2018-05-16T06:06:47.132Z,18.66
2018-05-16T06:07:47.368Z,18.86
2018-05-16T06:08:47.598Z,19.19
2018-05-16T06:09:47.836Z,19.67
2018-05-16T06:10:48.071Z,19.11
2018-05-16T06:11:48.311Z,19.59
2018-05-16T06:12:48.554Z,19.74
2018-05-16T06:13:48.768Z,19.77
2018-05-16T06:14:49.000Z,19.76
2018-05-16T06:15:49.235Z,19.95
2018-05-16T06:16:49.468Z,19.45
2018-05-16T06:17:49.699Z,19.14
2018-05-16T06:18:49.935Z,18.98
2018-05-16T06:19:50.204Z,19.47
2018-05-16T06:20:50.401Z,19.55
2018-05-16T06:21:50.636Z,19.40
2018-05-16T06:22:50.872Z,19.21
2018-05-16T06:23:51.108Z,18.49
2018-05-16T06:24:51.341Z,18.34
2018-05-16T06:25:51.572Z,17.97
2018-05-16T06:26:51.810Z,17.79
2018-05-16T06:27:52.042Z,17.60
2018-05-16T06:28:52.276Z,17.11
2018-05-16T06:29:52.508Z,16.97
2018-05-16T06:30:52.744Z,17.11
2018-05-16T06:31:52.978Z,17.26
2018-05-16T06:32:53.213Z,17.09
2018-05-16T06:33:53.446Z,16.79
2018-05-16T06:34:53.683Z,16.83
2018-05-16T06:35:53.915Z,16.75
2018-05-16T06:36:54.151Z,16.75
2018-05-16T06:37:54.380Z,16.81
2018-05-16T06:38:54.615Z,17.20
2018-05-16T06:39:54.846Z,17.16
2018-05-16T06:40:55.079Z,17.22
2018-05-16T06:41:55.313Z,17.71
2018-05-16T06:42:55.548Z,17.49
2018-05-16T06:43:55.795Z,17.44
2018-05-16T06:44:56.011Z,17.24
2018-05-16T06:45:56.279Z,17.20
2018-05-16T06:46:56.474Z,17.04
2018-05-16T06:47:56.709Z,17.01
2018-05-16T06:48:56.942Z,16.87
2018-05-16T06:49:57.169Z,16.68
2018-05-16T06:50:57.401Z,16.74
2018-05-16T06:51:57.638Z,16.83
2018-05-16T06:52:57.875Z,16.86
2018-05-16T06:53:58.107Z,17.04
2018-05-16T06:54:58.341Z,16.78
2018-05-16T06:55:58.577Z,16.76
2018-05-16T06:56:58.805Z,16.90
2018-05-16T06:57:59.036Z,16.94
2018-05-16T06:58:59.271Z,16.84
2018-05-16T06:59:59.504Z,16.86
2018-05-16T07:00:59.734Z,16.90
2018-05-16T07:01:59.964Z,16.97
2018-05-16T07:03:00.198Z,16.91
2018-05-16T07:04:00.449Z,17.08
2018-05-16T07:05:00.662Z,17.09
2018-05-16T07:06:00.895Z,17.06
2018-05-16T07:07:01.132Z,17.42
2018-05-16T07:08:01.366Z,17.56
2018-05-16T07:09:01.592Z,17.64
2018-05-16T07:10:01.822Z,17.67
2018-05-16T07:11:02.060Z,17.94
2018-05-16T07:12:02.293Z,17.98
2018-05-16T07:13:02.527Z,18.08
2018-05-16T07:14:02.753Z,18.16
2018-05-16T07:15:02.988Z,18.25
2018-05-16T07:16:03.221Z,18.23
2018-05-16T07:17:03.455Z,18.35
2018-05-16T07:18:03.688Z,18.37
2018-05-16T07:19:03.922Z,18.35
2018-05-16T07:20:04.155Z,18.40
2018-05-16T07:21:04.389Z,18.11
2018-05-16T07:22:04.622Z,18.31
2018-05-16T07:23:04.852Z,18.25
2018-05-16T07:24:05.085Z,18.19
2018-05-16T07:25:05.322Z,18.35
2018-05-16T07:26:05.556Z,18.29
2018-05-16T07:27:05.795Z,18.33
2018-05-16T07:28:06.024Z,18.37
2018-05-16T07:29:06.259Z,18.01
2018-05-16T07:30:06.490Z,17.82
2018-05-16T07:31:06.720Z,17.57
2018-05-16T07:32:06.952Z,17.48
2018-05-16T07:33:07.204Z,17.63
2018-05-16T07:34:07.424Z,17.60
2018-05-16T07:35:07.664Z,17.76
2018-05-16T07:36:07.900Z,17.59
2018-05-16T07:37:08.125Z,17.60
2018-05-16T07:38:08.353Z,17.70
2018-05-16T07:39:08.595Z,17.54
2018-05-16T07:40:08.808Z,17.46
2018-05-16T07:41:09.101Z,17.41
2018-05-16T07:42:09.280Z,17.44
2018-05-16T07:43:09.495Z,17.45
2018-05-16T07:44:09.727Z,17.67
2018-05-16T07:45:09.965Z,17.72
2018-05-16T07:46:10.198Z,17.80
2018-05-16T07:47:10.482Z,17.94
2018-05-16T07:48:10.664Z,17.85
2018-05-16T07:49:10.896Z,17.85
2018-05-16T07:50:11.129Z,17.97
2018-05-16T07:51:11.429Z,17.92
2018-05-16T07:52:11.597Z,17.82
2018-05-16T07:53:11.830Z,17.83
2018-05-16T07:54:12.063Z,17.80
2018-05-16T07:55:12.296Z,17.89
2018-05-16T07:56:12.531Z,18.08
2018-05-16T07:57:12.760Z,18.29
2018-05-16T07:58:12.992Z,18.37
2018-05-16T07:59:13.227Z,18.55
2018-05-16T08:00:13.461Z,18.81
2018-05-16T08:01:13.698Z,18.70
2018-05-16T08:02:13.924Z,18.90
2018-05-16T08:03:14.228Z,18.92
2018-05-16T08:04:14.394Z,18.96
2018-05-16T08:05:14.625Z,19.04
2018-05-16T08:06:14.861Z,19.04
2018-05-16T08:07:15.093Z,19.21
2018-05-16T08:08:15.327Z,19.15
2018-05-16T08:09:15.563Z,19.15
2018-05-16T08:10:15.799Z,19.26
2018-05-16T08:11:16.025Z,19.24
2018-05-16T08:12:16.287Z,19.16
2018-05-16T08:13:16.498Z,19.00
2018-05-16T08:14:16.731Z,18.98
2018-05-16T08:15:16.966Z,18.83
2018-05-16T08:16:17.194Z,18.83
2018-05-16T08:17:17.430Z,18.90
2018-05-16T08:18:17.667Z,18.70
2018-05-16T08:19:17.902Z,18.81
2018-05-16T08:20:18.137Z,18.89
2018-05-16T08:21:18.369Z,19.00
2018-05-16T08:22:18.603Z,19.00
2018-05-16T08:23:18.838Z,19.04
2018-05-16T08:24:19.072Z,18.80
2018-05-16T08:25:19.304Z,18.95
2018-05-16T08:26:19.537Z,19.15
2018-05-16T08:27:19.772Z,19.08
2018-05-16T08:28:20.011Z,19.16
2018-05-16T08:29:20.243Z,19.18
2018-05-16T08:30:20.473Z,19.14
2018-05-16T08:31:20.708Z,18.96
2018-05-16T08:32:20.942Z,18.98
2018-05-16T08:33:21.176Z,18.96
2018-05-16T08:34:21.410Z,18.65
2018-05-16T08:35:21.644Z,18.73
2018-05-16T08:36:21.881Z,18.96
2018-05-16T08:37:22.117Z,18.96
2018-05-16T08:38:22.351Z,19.07
2018-05-16T08:39:22.586Z,19.09
2018-05-16T08:40:22.820Z,19.19
2018-05-16T08:41:23.053Z,18.93
2018-05-16T08:42:23.287Z,19.15
2018-05-16T08:43:23.521Z,19.08
2018-05-16T08:44:23.753Z,19.21
2018-05-16T08:45:23.987Z,19.30
2018-05-16T08:46:24.224Z,19.24
2018-05-16T08:47:24.454Z,19.21
2018-05-16T08:48:24.692Z,19.16
2018-05-16T08:49:24.924Z,19.26
2018-05-16T08:50:25.158Z,19.16
2018-05-16T08:51:25.394Z,19.39
2018-05-16T08:52:25.636Z,19.40
2018-05-16T08:53:25.859Z,19.54
2018-05-16T08:54:26.093Z,19.69
2018-05-16T08:55:26.332Z,19.84
2018-05-16T08:56:26.560Z,19.85
2018-05-16T08:57:26.793Z,19.89
2018-05-16T08:58:27.048Z,19.88
2018-05-16T08:59:27.281Z,19.79
2018-05-16T09:00:27.510Z,19.69
2018-05-16T09:01:27.739Z,19.48
2018-05-16T09:02:27.974Z,19.22
2018-05-16T09:03:28.208Z,19.12
2018-05-16T09:04:28.445Z,19.36
2018-05-16T09:05:28.680Z,19.36
2018-05-16T09:06:28.913Z,19.40
2018-05-16T09:07:29.148Z,19.48
2018-05-16T09:08:29.383Z,19.39
2018-05-16T09:09:29.610Z,19.58
2018-05-16T09:10:29.849Z,19.58
2018-05-16T09:11:30.081Z,19.54
2018-05-16T09:12:30.324Z,19.67
2018-05-16T09:13:30.557Z,19.54
2018-05-16T09:14:30.790Z,19.58
2018-05-16T09:15:31.025Z,19.56
2018-05-16T09:16:31.259Z,19.63
2018-05-16T09:17:31.494Z,19.58
2018-05-16T09:18:31.730Z,19.55
2018-05-16T09:19:31.964Z,19.62
2018-05-16T09:20:32.200Z,19.56
2018-05-16T09:21:32.440Z,19.66
2018-05-16T09:22:32.664Z,19.54
2018-05-16T09:23:32.899Z,19.59
2018-05-16T09:24:33.134Z,19.69
2018-05-16T09:25:33.368Z,19.66
2018-05-16T09:26:33.605Z,19.79
2018-05-16T09:27:33.839Z,19.88
2018-05-16T09:28:34.072Z,19.88
2018-05-16T09:29:34.310Z,19.85
2018-05-16T09:30:34.546Z,20.10
2018-05-16T09:31:34.778Z,20.16
2018-05-16T09:32:35.037Z,20.18
2018-05-16T09:33:35.241Z,20.32
2018-05-16T09:34:35.476Z,20.34
2018-05-16T09:35:35.717Z,20.50
2018-05-16T09:36:35.949Z,20.62
2018-05-16T09:37:36.187Z,20.66
2018-05-16T09:38:36.420Z,20.77
2018-05-16T09:39:36.661Z,20.99
2018-05-16T09:40:36.891Z,21.14
2018-05-16T09:41:37.127Z,21.15
2018-05-16T09:42:37.362Z,21.29
2018-05-16T09:43:37.598Z,21.25
2018-05-16T09:44:37.832Z,21.43
2018-05-16T09:45:38.074Z,21.64
2018-05-16T09:46:38.305Z,21.80
2018-05-16T09:47:38.536Z,21.89
2018-05-16T09:48:38.769Z,21.73
2018-05-16T09:49:39.001Z,21.46
2018-05-16T09:50:39.241Z,21.50
2018-05-16T09:51:39.473Z,21.48
2018-05-16T09:52:39.706Z,21.32
2018-05-16T09:53:39.944Z,21.09
2018-05-16T09:54:40.187Z,21.05
2018-05-16T09:55:40.402Z,21.20
2018-05-16T09:56:40.639Z,21.11
2018-05-16T09:57:40.875Z,21.00
2018-05-16T09:58:41.108Z,21.05
2018-05-16T09:59:41.346Z,21.03
2018-05-16T10:00:41.579Z,20.95
2018-05-16T10:01:41.816Z,21.14
2018-05-16T10:02:42.120Z,21.14
2018-05-16T10:03:42.288Z,21.09
2018-05-16T10:04:42.522Z,20.87
2018-05-16T10:05:42.759Z,20.84
2018-05-16T10:06:42.991Z,21.00
2018-05-16T10:07:43.227Z,21.11
2018-05-16T10:08:43.463Z,21.07
2018-05-16T10:09:43.776Z,20.95
2018-05-16T10:10:43.934Z,20.70
2018-05-16T10:11:44.171Z,20.75
2018-05-16T10:12:44.401Z,20.62
2018-05-16T10:13:44.638Z,20.48
2018-05-16T10:14:44.874Z,20.44
2018-05-16T10:15:45.110Z,20.55
2018-05-16T10:16:45.349Z,20.65
2018-05-16T10:17:45.584Z,20.59
2018-05-16T10:18:45.820Z,20.66
2018-05-16T10:19:46.056Z,20.58
2018-05-16T10:20:46.311Z,20.41
2018-05-16T10:21:46.549Z,20.50
2018-05-16T10:22:46.784Z,20.56
2018-05-16T10:23:47.023Z,20.58
2018-05-16T10:24:47.254Z,20.40
2018-05-16T10:25:47.485Z,20.59
2018-05-16T10:26:47.725Z,20.50
2018-05-16T10:27:47.941Z,20.60
2018-05-16T10:28:48.179Z,20.60
2018-05-16T10:29:48.409Z,20.74
2018-05-16T10:30:48.646Z,20.77
2018-05-16T10:31:48.879Z,20.59
2018-05-16T10:32:49.124Z,20.66
2018-05-16T10:33:49.352Z,20.63
2018-05-16T10:34:49.587Z,20.63
2018-05-16T10:35:49.820Z,20.60
2018-05-16T10:36:50.057Z,20.80
2018-05-16T10:37:50.305Z,20.93
2018-05-16T10:38:50.546Z,21.00
2018-05-16T10:39:50.772Z,21.11
2018-05-16T10:40:51.005Z,20.92
2018-05-16T10:41:51.239Z,20.96
2018-05-16T10:42:51.474Z,21.05
2018-05-16T10:43:51.709Z,20.87
2018-05-16T10:44:51.946Z,20.96
2018-05-16T10:45:52.179Z,21.17
2018-05-16T10:46:52.419Z,21.22
2018-05-16T10:47:52.658Z,21.45
2018-05-16T10:48:52.888Z,21.54
2018-05-16T10:49:53.121Z,21.50
2018-05-16T10:50:53.354Z,21.51
2018-05-16T10:51:53.589Z,21.50
2018-05-16T10:52:53.823Z,21.37
2018-05-16T10:53:54.057Z,21.40
2018-05-16T10:54:54.293Z,21.52
2018-05-16T10:55:54.527Z,21.40
2018-05-16T10:56:54.765Z,21.58
2018-05-16T10:57:55.003Z,21.60
2018-05-16T10:58:55.232Z,21.77
2018-05-16T10:59:55.474Z,21.85
2018-05-16T11:00:55.701Z,21.85
2018-05-16T11:01:55.935Z,21.96
2018-05-16T11:02:56.171Z,21.72
2018-05-16T11:03:56.408Z,21.73
2018-05-16T11:04:56.642Z,21.64
2018-05-16T11:05:56.876Z,21.62
2018-05-16T11:06:57.111Z,21.66
2018-05-16T11:07:57.345Z,21.60
2018-05-16T11:08:57.583Z,21.61
2018-05-16T11:09:57.820Z,21.51
2018-05-16T11:10:58.054Z,21.43
2018-05-16T11:11:58.290Z,21.52
2018-05-16T11:12:58.525Z,21.60
2018-05-16T11:13:58.766Z,21.64
2018-05-16T11:14:58.998Z,21.75
2018-05-16T11:15:59.231Z,21.62
2018-05-16T11:16:59.466Z,21.40
2018-05-16T11:17:59.703Z,21.35
2018-05-16T11:18:59.937Z,21.48
2018-05-16T11:20:00.174Z,21.54
2018-05-16T11:21:00.412Z,21.61
2018-05-16T11:22:00.647Z,21.54
2018-05-16T11:23:00.881Z,21.40
2018-05-16T11:24:01.116Z,21.45
2018-05-16T11:25:01.354Z,21.57
2018-05-16T11:26:01.578Z,21.57
2018-05-16T11:27:01.827Z,21.60
2018-05-16T11:28:02.057Z,21.64
2018-05-16T11:29:02.288Z,21.54
2018-05-16T11:30:02.529Z,21.51
2018-05-16T11:31:02.766Z,21.58
2018-05-16T11:32:03.002Z,21.62
2018-05-16T11:33:03.237Z,21.55
2018-05-16T11:34:03.478Z,21.39
2018-05-16T11:35:03.721Z,21.52
2018-05-16T11:36:03.951Z,21.64
2018-05-16T11:37:04.185Z,21.54
2018-05-16T11:38:07.333Z,21.58
2018-05-16T11:39:04.688Z,21.37
2018-05-16T11:40:04.925Z,21.30
2018-05-16T11:41:05.157Z,21.36
2018-05-16T11:42:05.395Z,21.40
2018-05-16T11:43:05.631Z,21.42
2018-05-16T11:44:05.862Z,21.46
2018-05-16T11:45:06.110Z,21.43
2018-05-16T11:46:06.340Z,21.46
2018-05-16T11:47:27.598Z,21.43
2018-05-16T11:48:06.794Z,21.48
2018-05-16T11:49:07.031Z,21.58
2018-05-16T11:50:07.265Z,21.72
2018-05-16T11:51:07.502Z,21.96
2018-05-16T11:52:07.742Z,22.15
2018-05-16T11:53:07.977Z,22.30
2018-05-16T11:54:08.214Z,22.28
2018-05-16T11:55:08.455Z,22.26
2018-05-16T11:56:08.685Z,22.38
2018-05-16T11:57:08.919Z,22.38
2018-05-16T11:58:09.152Z,22.30
2018-05-16T11:59:09.412Z,22.44
2018-05-16T12:00:09.627Z,22.53
2018-05-16T12:01:09.865Z,22.59
2018-05-16T12:02:10.097Z,22.80
2018-05-16T12:03:10.352Z,22.80
2018-05-16T12:04:10.569Z,22.73
2018-05-16T12:05:10.838Z,22.73
2018-05-16T12:06:11.044Z,22.68
2018-05-16T12:07:11.284Z,22.48
2018-05-16T12:08:11.515Z,22.44
2018-05-16T12:09:11.768Z,22.59
2018-05-16T12:10:11.979Z,22.59
2018-05-16T12:11:12.208Z,22.66
2018-05-16T12:12:12.447Z,22.87
2018-05-16T12:13:12.676Z,23.10
2018-05-16T12:14:12.918Z,23.13
2018-05-16T12:15:13.152Z,23.28
2018-05-16T12:16:13.386Z,23.46
2018-05-16T12:17:13.625Z,23.55
2018-05-16T12:18:13.851Z,23.59
2018-05-16T12:19:14.101Z,23.68
2018-05-16T12:20:14.337Z,23.77
2018-05-16T12:21:14.578Z,23.66
2018-05-16T12:22:14.806Z,23.69
2018-05-16T12:23:15.044Z,23.69
2018-05-16T12:24:15.281Z,23.62
2018-05-16T12:25:15.518Z,23.48
2018-05-16T12:26:15.754Z,23.32
2018-05-16T12:27:15.990Z,23.13
2018-05-16T12:28:16.221Z,23.12
2018-05-16T12:29:16.506Z,23.06
2018-05-16T12:30:16.696Z,22.98
2018-05-16T12:31:16.929Z,22.93
2018-05-16T12:32:17.171Z,22.87
2018-05-16T12:33:17.409Z,22.76
2018-05-16T12:34:17.646Z,22.48
2018-05-16T12:35:17.892Z,22.36
2018-05-16T12:36:18.115Z,22.17
2018-05-16T12:37:18.354Z,22.02
2018-05-16T12:38:18.590Z,21.91
2018-05-16T12:39:18.824Z,21.77
2018-05-16T12:40:19.062Z,21.76
2018-05-16T12:41:19.306Z,21.72
2018-05-16T12:42:19.529Z,21.60
2018-05-16T12:43:19.795Z,21.67
2018-05-16T12:44:20.003Z,21.58
2018-05-16T12:45:20.245Z,21.52
2018-05-16T12:46:20.476Z,21.45
2018-05-16T12:47:20.712Z,21.33
2018-05-16T12:48:20.947Z,21.32
2018-05-16T12:49:21.214Z,21.14
2018-05-16T12:50:21.417Z,21.12
2018-05-16T12:51:21.656Z,21.03
2018-05-16T12:52:21.911Z,20.93
2018-05-16T12:53:22.112Z,20.95
2018-05-16T12:54:22.344Z,20.88
2018-05-16T12:55:22.576Z,20.96